createdAt,value
2019-05-05T00:00:06.342Z,4.80
2019-05-05T00:05:26.885Z,4.80
2019-05-05T00:10:39.051Z,4.70
2019-05-05T00:16:01.115Z,4.80
2019-05-05T00:21:05.991Z,4.70
2019-05-05T00:26:08.352Z,4.80
2019-05-05T00:31:12.259Z,4.80
2019-05-05T00:36:14.726Z,4.80
2019-05-05T00:41:17.497Z,4.80
2019-05-05T00:46:35.248Z,4.90
2019-05-05T00:51:38.827Z,4.90
2019-05-05T00:56:41.248Z,4.80
2019-05-05T01:02:09.263Z,4.80
2019-05-05T01:07:14.207Z,4.80
2019-05-05T01:12:17.399Z,4.80
2019-05-05T01:17:19.952Z,4.80
2019-05-05T01:22:25.025Z,4.80
2019-05-05T01:27:27.748Z,4.70
2019-05-05T01:32:35.312Z,4.80
2019-05-05T01:37:44.855Z,4.80
2019-05-05T01:42:47.757Z,4.80
2019-05-05T01:47:50.156Z,4.80
2019-05-05T01:52:52.616Z,4.80
2019-05-05T01:57:55.616Z,4.90
2019-05-05T02:03:00.158Z,4.90
2019-05-05T02:08:04.697Z,5.00
2019-05-05T02:13:07.521Z,5.00
2019-05-05T02:18:09.979Z,5.00
2019-05-05T02:23:15.139Z,5.00
2019-05-05T02:28:18.340Z,5.00
2019-05-05T02:33:21.220Z,5.00
2019-05-05T02:38:26.162Z,5.10
2019-05-05T02:43:30.084Z,5.00
2019-05-05T02:48:35.442Z,5.00
2019-05-05T02:53:59.780Z,5.00
2019-05-05T02:59:06.428Z,4.90
2019-05-05T03:04:09.055Z,4.90
2019-05-05T03:09:13.998Z,4.90
2019-05-05T03:14:18.666Z,4.80
2019-05-05T03:19:23.689Z,4.80
2019-05-05T03:24:27.419Z,4.80
2019-05-05T03:29:30.135Z,4.90
2019-05-05T03:34:41.789Z,4.80
2019-05-05T03:39:50.306Z,4.80
2019-05-05T03:44:55.370Z,4.80
2019-05-05T03:49:57.979Z,4.80
2019-05-05T03:55:00.651Z,4.80
2019-05-05T04:00:05.815Z,4.80
2019-05-05T04:05:16.935Z,4.80
2019-05-05T04:10:19.675Z,4.80
2019-05-05T04:15:25.220Z,4.90
2019-05-05T04:20:39.075Z,5.00
2019-05-05T04:25:44.593Z,5.00
2019-05-05T04:31:04.605Z,5.10
2019-05-05T04:36:07.101Z,5.20
2019-05-05T04:41:09.588Z,5.30
2019-05-05T04:51:58.087Z,5.50
2019-05-05T04:57:00.604Z,5.70
2019-05-05T05:07:41.460Z,5.80
2019-05-05T05:12:43.988Z,5.80
2019-05-05T05:29:23.821Z,5.50
2019-05-05T05:34:26.496Z,5.40
2019-05-05T05:39:48.468Z,5.40
2019-05-05T05:50:54.159Z,5.30
2019-05-05T05:55:57.111Z,5.50
2019-05-05T06:01:15.719Z,5.50
2019-05-05T06:06:34.679Z,5.60
2019-05-05T06:11:37.295Z,5.80
2019-05-05T06:16:39.736Z,6.00
2019-05-05T06:21:44.012Z,6.20
2019-05-05T06:26:46.612Z,6.30
2019-05-05T06:31:50.441Z,6.40
2019-05-05T06:36:53.709Z,6.80
2019-05-05T06:42:15.835Z,7.30
2019-05-05T06:47:23.833Z,7.50
2019-05-05T06:52:26.799Z,7.80
2019-05-05T06:57:29.195Z,8.00
2019-05-05T07:02:34.259Z,8.30
2019-05-05T07:07:37.422Z,8.80
2019-05-05T07:12:40.384Z,9.70
2019-05-05T07:17:49.442Z,10.30
2019-05-05T07:23:01.364Z,10.40
2019-05-05T07:27:57.362Z,10.40
2019-05-05T07:32:59.924Z,10.50
2019-05-05T07:38:04.369Z,10.60
2019-05-05T07:43:15.785Z,11.00
2019-05-05T07:48:18.423Z,11.20
2019-05-05T07:53:21.284Z,11.00
2019-05-05T07:58:24.294Z,10.90
2019-05-05T08:03:27.133Z,11.00
2019-05-05T08:08:30.785Z,11.40
2019-05-05T08:13:34.383Z,11.80
2019-05-05T08:18:55.849Z,12.10
2019-05-05T08:24:10.136Z,12.40
2019-05-05T08:29:38.135Z,12.00
2019-05-05T08:34:53.874Z,11.30
2019-05-05T08:39:45.994Z,11.40
2019-05-05T08:44:48.575Z,11.70
2019-05-05T08:49:53.762Z,11.50
2019-05-05T08:54:56.783Z,11.20
2019-05-05T09:00:04.726Z,11.20
2019-05-05T09:05:07.199Z,11.50
2019-05-05T09:10:09.699Z,11.80
2019-05-05T09:15:13.638Z,12.30
2019-05-05T09:20:16.443Z,13.00
2019-05-05T09:25:37.507Z,13.70
2019-05-05T09:30:44.399Z,13.50
2019-05-05T09:35:48.011Z,13.90
2019-05-05T09:40:50.412Z,13.90
2019-05-05T09:45:54.558Z,14.00
2019-05-05T09:50:57.482Z,13.80
2019-05-05T09:55:59.871Z,13.90
2019-05-05T10:01:04.008Z,14.10
2019-05-05T10:06:06.622Z,14.20
2019-05-05T10:11:09.032Z,14.10
2019-05-05T10:16:11.376Z,13.50
2019-05-05T10:21:17.620Z,13.20
2019-05-05T10:26:19.019Z,13.20
2019-05-05T10:31:24.023Z,12.90
2019-05-05T10:36:26.731Z,12.50
2019-05-05T10:41:29.322Z,12.30
2019-05-05T10:46:33.987Z,12.40
2019-05-05T10:51:36.393Z,12.30
2019-05-05T10:56:38.803Z,12.60
2019-05-05T11:01:41.188Z,12.70
2019-05-05T11:06:44.668Z,12.70
2019-05-05T11:11:47.067Z,13.00
2019-05-05T11:16:50.022Z,13.20
2019-05-05T11:21:53.998Z,13.30
2019-05-05T11:26:56.544Z,13.20
2019-05-05T11:32:15.665Z,13.20
2019-05-05T11:37:20.931Z,13.60
2019-05-05T11:48:54.491Z,14.50
2019-05-05T11:54:07.274Z,14.50
2019-05-05T12:05:04.596Z,13.70
2019-05-05T12:21:35.692Z,13.80
2019-05-05T12:27:11.451Z,13.90
2019-05-05T12:33:10.251Z,14.30
2019-05-05T13:07:24.750Z,15.70
2019-05-05T13:12:56.420Z,15.70
2019-05-05T13:18:04.397Z,16.20
2019-05-05T13:23:59.003Z,15.80
2019-05-05T13:29:01.827Z,15.60
2019-05-05T13:34:04.691Z,15.60
2019-05-05T13:39:09.351Z,15.80
2019-05-05T13:44:19.283Z,16.00
2019-05-05T13:49:27.011Z,15.90
2019-05-05T13:54:29.699Z,15.80
2019-05-05T13:59:33.993Z,15.70
2019-05-05T14:04:36.340Z,15.80
2019-05-05T14:09:38.892Z,15.90
2019-05-05T14:14:44.021Z,20.00
2019-05-05T14:20:00.404Z,22.70
2019-05-05T14:30:50.770Z,20.40
2019-05-05T14:36:13.973Z,19.60
2019-05-05T14:41:16.967Z,19.80
2019-05-05T14:46:23.378Z,19.40
2019-05-05T14:51:25.651Z,21.10
2019-05-05T14:56:36.216Z,22.30
2019-05-05T15:01:34.226Z,21.60
2019-05-05T15:06:44.663Z,19.20
2019-05-05T15:12:05.678Z,17.60
2019-05-05T15:17:08.213Z,18.30
2019-05-05T15:22:10.736Z,18.30
2019-05-05T15:27:13.567Z,18.40
2019-05-05T15:32:16.116Z,19.40
2019-05-05T15:37:19.064Z,22.00
2019-05-05T15:42:21.583Z,23.30
2019-05-05T15:47:26.040Z,23.50
2019-05-05T15:52:35.607Z,20.10
2019-05-05T15:57:38.037Z,17.70
2019-05-05T16:02:40.545Z,16.20
2019-05-05T16:07:44.014Z,15.20
2019-05-05T16:12:46.980Z,14.50
2019-05-05T16:18:16.926Z,14.10
2019-05-05T16:23:23.289Z,14.10
2019-05-05T16:28:25.723Z,14.80
2019-05-05T16:33:28.023Z,16.40
2019-05-05T16:38:30.424Z,17.90
2019-05-05T16:43:33.751Z,17.80
2019-05-05T16:48:37.258Z,16.90
2019-05-05T16:53:39.673Z,15.50
2019-05-05T16:58:42.112Z,14.80
2019-05-05T17:03:45.945Z,15.50
2019-05-05T17:08:49.614Z,17.30
2019-05-05T17:14:18.371Z,18.00
2019-05-05T17:19:25.799Z,17.50
2019-05-05T17:24:29.239Z,16.90
2019-05-05T17:29:31.822Z,17.10
2019-05-05T17:34:35.469Z,15.90
2019-05-05T17:39:45.537Z,14.60
2019-05-05T17:45:11.606Z,13.80
2019-05-05T17:50:46.456Z,13.10
2019-05-05T17:55:50.515Z,12.30
2019-05-05T18:00:57.667Z,11.70
2019-05-05T18:06:26.898Z,11.30
2019-05-05T18:11:58.535Z,10.80
2019-05-05T18:17:01.710Z,10.40
2019-05-05T18:22:04.538Z,10.10
2019-05-05T18:33:06.598Z,9.30
2019-05-05T18:38:09.936Z,8.60
2019-05-05T18:49:33.701Z,8.10
2019-05-05T18:54:37.936Z,7.70
2019-05-05T18:59:41.255Z,7.30
2019-05-05T19:05:12.636Z,7.00
2019-05-05T19:10:16.427Z,6.70
2019-05-05T19:15:20.240Z,6.40
2019-05-05T19:20:46.193Z,6.30
2019-05-05T19:25:49.065Z,6.20
2019-05-05T19:30:59.657Z,6.00
2019-05-05T19:36:04.774Z,5.70
2019-05-05T19:41:06.651Z,5.50
2019-05-05T19:46:10.890Z,5.30
2019-05-05T19:57:03.888Z,5.10
2019-05-05T20:02:07.585Z,5.00
2019-05-05T20:07:10.135Z,4.90
2019-05-05T20:12:16.142Z,4.80
2019-05-05T20:17:24.503Z,4.60
2019-05-05T20:22:27.063Z,4.50
2019-05-05T20:27:29.943Z,4.40
2019-05-05T20:32:51.419Z,4.20
2019-05-05T20:38:04.762Z,3.90
2019-05-05T20:43:07.334Z,3.70
2019-05-05T20:48:09.779Z,3.60
2019-05-05T20:53:13.626Z,3.50
2019-05-05T20:58:16.697Z,3.40
2019-05-05T21:03:19.160Z,3.40
2019-05-05T21:08:23.529Z,3.30
2019-05-05T21:13:25.831Z,3.20
2019-05-05T21:18:28.566Z,3.00
2019-05-05T21:23:54.588Z,2.90
2019-05-05T21:28:57.240Z,2.70
2019-05-05T21:33:59.771Z,2.50
2019-05-05T21:39:04.034Z,2.40
2019-05-05T21:44:07.636Z,2.30
2019-05-05T21:49:10.147Z,2.20
2019-05-05T21:54:30.764Z,2.20
2019-05-05T21:59:33.736Z,2.10
2019-05-05T22:04:36.880Z,2.00
2019-05-05T22:09:39.395Z,1.90
2019-05-05T22:14:43.511Z,1.80
2019-05-05T22:19:55.879Z,1.70
2019-05-05T22:24:58.319Z,1.60
2019-05-05T22:30:09.718Z,1.60
2019-05-05T22:35:05.892Z,1.60
2019-05-05T22:40:10.219Z,1.50
2019-05-05T22:45:14.207Z,1.50
2019-05-05T22:50:17.059Z,1.50
2019-05-05T22:55:20.452Z,1.40
2019-05-05T23:00:29.052Z,1.30
2019-05-05T23:05:36.196Z,1.30
2019-05-05T23:10:38.615Z,1.20
2019-05-05T23:15:47.595Z,1.20
2019-05-05T23:21:10.286Z,1.10
2019-05-05T23:26:15.835Z,1.10
2019-05-05T23:31:18.259Z,1.00
2019-05-05T23:36:20.594Z,1.00
2019-05-05T23:41:23.901Z,1.00
2019-05-05T23:46:27.815Z,1.00
2019-05-05T23:51:30.275Z,1.00
2019-05-05T23:56:34.747Z,1.00
